createdAt,value
2018-07-24T00:02:18.023Z,5.60
2018-07-24T00:04:46.487Z,5.33
2018-07-24T00:07:14.957Z,5.63
2018-07-24T00:09:43.934Z,5.00
2018-07-24T00:12:12.409Z,5.07
2018-07-24T00:14:41.740Z,5.37
2018-07-24T00:17:10.394Z,5.80
2018-07-24T00:19:38.875Z,5.90
2018-07-24T00:22:07.460Z,6.60
2018-07-24T00:24:36.017Z,5.63
2018-07-24T00:27:04.213Z,6.40
2018-07-24T00:29:32.668Z,6.00
2018-07-24T00:32:01.239Z,6.20
2018-07-24T00:34:29.660Z,6.60
2018-07-24T00:36:58.457Z,5.90
2018-07-24T00:39:26.940Z,6.30
2018-07-24T00:41:55.427Z,5.90
2018-07-24T00:44:23.917Z,5.73
2018-07-24T00:46:52.401Z,5.30
2018-07-24T00:49:20.882Z,6.07
2018-07-24T00:51:49.399Z,6.40
2018-07-24T00:54:18.264Z,5.40
2018-07-24T00:56:47.936Z,5.90
2018-07-24T00:59:16.401Z,5.87
2018-07-24T01:01:45.249Z,6.20
2018-07-24T01:04:13.701Z,6.17
2018-07-24T01:06:42.176Z,5.70
2018-07-24T01:09:11.777Z,6.77
2018-07-24T01:11:40.636Z,6.13
2018-07-24T01:14:10.149Z,6.47
2018-07-24T01:16:38.528Z,5.87
2018-07-24T01:19:07.005Z,6.33
2018-07-24T01:21:35.485Z,5.50
2018-07-24T01:24:03.980Z,6.33
2018-07-24T01:26:32.249Z,5.23
2018-07-24T01:29:00.717Z,6.70
2018-07-24T01:31:29.191Z,6.10
2018-07-24T01:33:57.691Z,6.90
2018-07-24T01:36:26.141Z,6.40
2018-07-24T01:38:54.631Z,5.27
2018-07-24T01:41:23.117Z,6.33
2018-07-24T01:43:51.599Z,5.90
2018-07-24T01:46:20.193Z,7.30
2018-07-24T01:48:48.408Z,6.50
2018-07-24T01:51:16.866Z,5.87
2018-07-24T01:53:45.031Z,6.60
2018-07-24T01:56:13.211Z,7.00
2018-07-24T01:58:41.518Z,5.97
2018-07-24T02:01:09.990Z,6.90
2018-07-24T02:03:38.466Z,7.33
2018-07-24T02:06:07.158Z,6.50
2018-07-24T02:08:35.658Z,6.30
2018-07-24T02:11:04.120Z,5.87
2018-07-24T02:13:32.727Z,6.77
2018-07-24T02:16:01.183Z,5.93
2018-07-24T02:18:29.686Z,6.40
2018-07-24T02:20:58.224Z,5.87
2018-07-24T02:23:26.658Z,6.47
2018-07-24T02:25:55.137Z,6.60
2018-07-24T02:28:23.585Z,6.87
2018-07-24T02:30:52.091Z,6.93
2018-07-24T02:33:20.562Z,7.40
2018-07-24T02:35:49.078Z,7.20
2018-07-24T02:38:17.593Z,7.30
2018-07-24T02:40:46.106Z,7.57
2018-07-24T02:43:14.562Z,7.40
2018-07-24T02:45:43.011Z,7.70
2018-07-24T02:48:11.479Z,6.93
2018-07-24T02:50:39.998Z,7.97
2018-07-24T02:53:08.118Z,7.47
2018-07-24T03:02:21.562Z,7.03
2018-07-24T03:04:50.107Z,6.80
2018-07-24T03:07:18.618Z,7.30
2018-07-24T03:09:46.880Z,7.30
2018-07-24T03:12:15.406Z,7.53
2018-07-24T03:14:43.912Z,7.97
2018-07-24T03:17:12.420Z,9.03
2018-07-24T03:19:40.882Z,8.47
2018-07-24T03:22:09.432Z,8.70
2018-07-24T03:24:38.002Z,8.20
2018-07-24T03:27:06.752Z,8.63
2018-07-24T03:29:35.258Z,7.93
2018-07-24T03:32:03.413Z,8.80
2018-07-24T03:34:31.874Z,8.17
2018-07-24T03:37:00.381Z,8.17
2018-07-24T03:39:28.859Z,8.00
2018-07-24T03:41:57.397Z,7.20
2018-07-24T03:44:25.882Z,7.17
2018-07-24T03:46:54.501Z,7.13
2018-07-24T03:49:22.963Z,8.40
2018-07-24T03:51:51.445Z,6.83
2018-07-24T03:54:19.931Z,8.17
2018-07-24T03:56:48.645Z,7.97
2018-07-24T03:59:16.954Z,8.73
2018-07-24T04:01:45.417Z,8.43
2018-07-24T04:04:13.986Z,7.50
2018-07-24T04:06:42.766Z,7.53
2018-07-24T04:09:11.910Z,6.87
2018-07-24T04:11:41.250Z,7.90
2018-07-24T04:14:09.887Z,7.77
2018-07-24T04:16:39.118Z,8.03
2018-07-24T04:19:07.635Z,7.07
2018-07-24T04:21:35.907Z,7.80
2018-07-24T04:24:04.461Z,6.77
2018-07-24T04:26:32.938Z,7.97
2018-07-24T04:29:01.625Z,8.20
2018-07-24T04:31:30.140Z,7.47
2018-07-24T04:33:58.582Z,6.90
2018-07-24T04:36:27.086Z,7.70
2018-07-24T04:38:55.510Z,8.13
2018-07-24T04:41:26.883Z,8.17
2018-07-24T04:43:55.575Z,7.87
2018-07-24T04:46:25.004Z,8.00
2018-07-24T04:48:53.452Z,8.43
2018-07-24T04:51:21.959Z,8.10
2018-07-24T04:53:50.434Z,8.00
2018-07-24T04:56:18.965Z,8.57
2018-07-24T04:58:47.437Z,8.37
2018-07-24T05:01:15.743Z,8.20
2018-07-24T05:03:44.230Z,7.90
2018-07-24T05:06:12.743Z,8.73
2018-07-24T05:08:41.261Z,8.23
2018-07-24T05:11:09.848Z,8.57
2018-07-24T05:13:38.591Z,7.63
2018-07-24T05:16:07.125Z,7.70
2018-07-24T05:18:35.574Z,8.00
2018-07-24T05:21:04.511Z,8.20
2018-07-24T05:23:34.241Z,8.53
2018-07-24T05:26:02.825Z,8.13
2018-07-24T05:28:31.263Z,7.23
2018-07-24T05:30:59.821Z,7.20
2018-07-24T05:33:28.303Z,8.90
2018-07-24T05:35:56.928Z,7.33
2018-07-24T05:38:25.382Z,7.63
2018-07-24T05:40:53.710Z,7.67
2018-07-24T05:43:22.417Z,7.70
2018-07-24T05:45:50.984Z,8.67
2018-07-24T05:48:19.447Z,7.63
2018-07-24T05:50:47.916Z,8.27
2018-07-24T05:53:16.485Z,7.50
2018-07-24T05:55:44.969Z,8.13
2018-07-24T05:58:13.490Z,8.30
2018-07-24T06:00:41.986Z,7.43
2018-07-24T06:03:10.543Z,9.03
2018-07-24T06:05:39.020Z,6.47
2018-07-24T06:08:07.514Z,8.37
2018-07-24T06:10:35.974Z,7.17
2018-07-24T06:13:05.197Z,8.30
2018-07-24T06:15:33.879Z,8.27
2018-07-24T06:18:02.382Z,7.33
2018-07-24T06:20:30.830Z,6.30
2018-07-24T06:22:59.357Z,7.50
2018-07-24T06:25:27.860Z,8.07
2018-07-24T06:27:56.562Z,7.03
2018-07-24T06:30:25.031Z,7.80
2018-07-24T06:32:53.612Z,7.30
2018-07-24T06:35:22.205Z,6.53
2018-07-24T06:37:51.296Z,7.60
2018-07-24T06:40:19.494Z,7.40
2018-07-24T06:42:48.027Z,8.57
2018-07-24T06:45:16.581Z,7.50
2018-07-24T06:47:45.113Z,7.50
2018-07-24T06:50:13.778Z,7.00
2018-07-24T06:52:42.509Z,7.20
2018-07-24T06:55:11.081Z,7.53
2018-07-24T06:57:40.442Z,7.63
2018-07-24T07:00:09.007Z,7.93
2018-07-24T07:02:37.469Z,7.43
2018-07-24T07:05:06.559Z,7.97
2018-07-24T07:07:35.013Z,7.50
2018-07-24T07:10:03.628Z,8.03
2018-07-24T07:12:32.796Z,8.00
2018-07-24T07:15:01.565Z,7.30
2018-07-24T07:17:30.054Z,7.80
2018-07-24T07:19:58.578Z,9.07
2018-07-24T07:22:27.087Z,8.10
2018-07-24T07:24:55.593Z,9.53
2018-07-24T07:27:23.761Z,8.40
2018-07-24T07:29:52.239Z,8.53
2018-07-24T07:32:20.788Z,9.20
2018-07-24T07:34:49.407Z,8.90
2018-07-24T07:37:17.958Z,7.93
2018-07-24T07:39:46.519Z,7.30
2018-07-24T07:42:14.965Z,8.33
2018-07-24T07:44:43.482Z,7.27
2018-07-24T07:47:12.031Z,7.50
2018-07-24T07:49:40.192Z,8.27
2018-07-24T07:52:08.752Z,7.90
2018-07-24T07:54:37.203Z,7.90
2018-07-24T07:57:05.728Z,5.83
2018-07-24T07:59:34.311Z,6.73
2018-07-24T08:02:02.838Z,6.70
2018-07-24T08:04:31.354Z,7.37
2018-07-24T08:06:59.989Z,7.00
2018-07-24T08:09:28.537Z,7.27
2018-07-24T08:11:57.080Z,6.70
2018-07-24T08:14:26.172Z,7.23
2018-07-24T08:16:54.762Z,7.07
2018-07-24T08:19:23.276Z,8.40
2018-07-24T08:21:52.234Z,8.47
2018-07-24T08:24:20.758Z,8.77
2018-07-24T08:26:49.217Z,8.43
2018-07-24T08:29:17.713Z,8.33
2018-07-24T08:31:46.173Z,7.47
2018-07-24T08:34:14.711Z,8.00
2018-07-24T08:36:43.188Z,8.10
2018-07-24T08:39:12.842Z,7.87
2018-07-24T08:41:42.091Z,7.63
2018-07-24T08:44:10.583Z,8.20
2018-07-24T08:46:39.080Z,7.20
2018-07-24T08:49:07.802Z,8.07
2018-07-24T08:51:36.252Z,8.03
2018-07-24T08:54:04.860Z,7.10
2018-07-24T08:56:33.359Z,7.23
2018-07-24T08:59:01.817Z,7.30
2018-07-24T09:01:30.323Z,7.57
2018-07-24T09:03:58.819Z,5.50
2018-07-24T09:06:27.409Z,6.10
2018-07-24T09:08:55.999Z,6.60
2018-07-24T09:11:25.466Z,6.77
2018-07-24T09:13:55.215Z,6.37
2018-07-24T09:16:24.750Z,6.97
2018-07-24T09:18:54.627Z,6.70
2018-07-24T09:21:23.161Z,6.73
2018-07-24T09:23:51.861Z,6.93
2018-07-24T09:26:20.390Z,5.67
2018-07-24T09:28:48.880Z,6.00
2018-07-24T09:31:18.726Z,5.10
2018-07-24T09:33:47.781Z,5.30
2018-07-24T09:36:15.983Z,5.73
2018-07-24T09:38:45.104Z,4.90
2018-07-24T09:41:13.641Z,4.87
2018-07-24T09:43:42.144Z,4.90
2018-07-24T09:46:10.841Z,6.00
2018-07-24T09:48:39.550Z,5.27
2018-07-24T09:51:08.397Z,5.10
2018-07-24T09:53:36.858Z,5.10
2018-07-24T09:56:05.095Z,5.63
2018-07-24T09:58:34.526Z,5.50
2018-07-24T10:01:08.519Z,5.73
2018-07-24T10:03:37.066Z,5.30
2018-07-24T10:06:05.586Z,5.93
2018-07-24T10:08:34.094Z,5.67
2018-07-24T10:11:02.641Z,5.60
2018-07-24T10:13:31.418Z,5.30
2018-07-24T10:15:59.921Z,4.37
2018-07-24T10:18:28.378Z,4.87
2018-07-24T10:20:56.962Z,4.60
2018-07-24T10:23:25.836Z,4.40
2018-07-24T10:25:54.334Z,5.10
2018-07-24T10:28:22.815Z,5.00
2018-07-24T10:30:51.334Z,5.60
2018-07-24T10:33:19.825Z,5.17
2018-07-24T10:35:49.064Z,5.80
2018-07-24T10:38:17.649Z,6.00
2018-07-24T10:40:46.228Z,6.10
2018-07-24T10:43:15.221Z,6.10
2018-07-24T10:45:44.163Z,5.97
2018-07-24T10:48:12.722Z,6.30
2018-07-24T10:50:41.623Z,4.80
2018-07-24T10:53:10.109Z,5.93
2018-07-24T10:55:39.078Z,6.03
2018-07-24T10:58:07.597Z,5.80
2018-07-24T11:00:36.026Z,6.10
2018-07-24T11:03:04.626Z,5.07
2018-07-24T11:05:33.220Z,5.30
2018-07-24T11:08:02.493Z,4.83
2018-07-24T11:10:31.184Z,5.00
2018-07-24T11:12:59.894Z,5.20
2018-07-24T11:15:28.441Z,5.37
2018-07-24T11:17:56.930Z,5.97
2018-07-24T11:20:25.596Z,5.03
2018-07-24T11:22:54.226Z,4.70
2018-07-24T11:25:23.024Z,4.90
2018-07-24T11:27:51.546Z,4.83
2018-07-24T11:30:20.190Z,4.60
2018-07-24T11:32:48.706Z,4.60
2018-07-24T11:35:17.242Z,5.30
2018-07-24T11:37:45.906Z,4.60
2018-07-24T11:40:14.435Z,4.10
2018-07-24T11:42:42.913Z,4.07
2018-07-24T11:45:11.413Z,4.50
2018-07-24T11:47:39.874Z,3.53
2018-07-24T11:50:08.567Z,4.43
2018-07-24T11:52:37.429Z,4.40
2018-07-24T11:55:06.191Z,4.17
2018-07-24T11:57:34.726Z,4.40
2018-07-24T12:00:03.251Z,4.13
2018-07-24T12:02:31.781Z,4.40
2018-07-24T12:05:00.226Z,4.60
2018-07-24T12:07:28.771Z,4.60
2018-07-24T12:09:57.262Z,4.43
2018-07-24T12:12:25.781Z,4.77
2018-07-24T12:14:54.501Z,4.90
2018-07-24T12:17:22.966Z,4.30
2018-07-24T12:19:51.676Z,4.20
2018-07-24T12:22:20.177Z,4.20
2018-07-24T12:24:49.378Z,4.40
2018-07-24T12:27:18.137Z,4.30
2018-07-24T12:29:46.591Z,4.80
2018-07-24T12:32:15.105Z,4.43
2018-07-24T12:34:46.141Z,4.90
2018-07-24T12:37:16.801Z,4.60
2018-07-24T12:39:45.315Z,4.33
2018-07-24T12:42:13.822Z,5.40
2018-07-24T12:44:42.257Z,4.50
2018-07-24T12:47:10.724Z,5.27
2018-07-24T12:49:39.906Z,5.20
2018-07-24T12:52:08.436Z,4.50
2018-07-24T12:54:36.929Z,5.60
2018-07-24T12:57:05.562Z,5.50
2018-07-24T12:59:34.169Z,4.97
2018-07-24T13:02:02.659Z,4.70
2018-07-24T13:04:31.246Z,5.30
2018-07-24T13:06:59.741Z,4.53
2018-07-24T13:09:29.013Z,5.17
2018-07-24T13:11:57.593Z,5.40
2018-07-24T13:14:26.294Z,4.73
2018-07-24T13:16:55.355Z,4.50
2018-07-24T13:19:23.935Z,4.60
2018-07-24T13:21:52.449Z,4.43
2018-07-24T13:24:21.081Z,4.97
2018-07-24T13:26:50.206Z,4.20
2018-07-24T13:29:18.822Z,4.97
2018-07-24T13:31:47.342Z,4.73
2018-07-24T13:34:16.412Z,4.00
2018-07-24T13:36:45.208Z,4.03
2018-07-24T13:39:13.801Z,4.17
2018-07-24T13:41:42.268Z,4.10
2018-07-24T13:44:11.031Z,4.33
2018-07-24T13:46:39.688Z,4.63
2018-07-24T13:49:08.274Z,3.70
2018-07-24T13:51:36.407Z,4.03
2018-07-24T13:54:04.903Z,3.57
2018-07-24T13:56:33.370Z,3.67
2018-07-24T13:59:02.700Z,4.20
2018-07-24T14:01:31.090Z,3.20
2018-07-24T14:03:59.898Z,3.50
2018-07-24T14:06:28.370Z,3.03
2018-07-24T14:08:56.889Z,3.17
2018-07-24T14:11:25.609Z,3.23
2018-07-24T14:13:54.371Z,2.93
2018-07-24T14:16:23.090Z,2.93
2018-07-24T14:18:51.823Z,3.60
2018-07-24T14:21:20.918Z,3.17
2018-07-24T14:23:49.424Z,3.20
2018-07-24T14:26:17.900Z,2.53
2018-07-24T14:28:46.444Z,4.00
2018-07-24T14:31:16.292Z,3.00
2018-07-24T14:33:45.318Z,3.47
2018-07-24T14:36:14.141Z,3.10
2018-07-24T14:38:42.664Z,2.77
2018-07-24T14:41:11.173Z,2.53
2018-07-24T14:43:39.686Z,2.87
2018-07-24T14:46:07.849Z,3.13
2018-07-24T14:48:36.310Z,2.50
2018-07-24T14:51:05.060Z,3.83
2018-07-24T14:53:33.587Z,3.17
2018-07-24T14:56:03.229Z,2.60
2018-07-24T14:58:31.703Z,2.98
2018-07-24T15:01:00.198Z,2.60
2018-07-24T15:03:28.809Z,3.07
2018-07-24T15:05:57.292Z,2.90
2018-07-24T15:08:26.393Z,3.07
2018-07-24T15:10:54.906Z,3.10
2018-07-24T15:13:23.489Z,3.23
2018-07-24T15:15:52.128Z,3.10
2018-07-24T15:18:20.610Z,3.20
2018-07-24T15:20:49.173Z,3.20
2018-07-24T15:23:18.594Z,2.57
2018-07-24T15:25:47.584Z,2.73
2018-07-24T15:28:16.264Z,2.83
2018-07-24T15:30:45.698Z,2.60
2018-07-24T15:33:14.265Z,2.50
2018-07-24T15:35:42.920Z,2.67
2018-07-24T15:38:11.485Z,3.27
2018-07-24T15:40:40.053Z,2.40
2018-07-24T15:43:08.526Z,2.40
2018-07-24T15:45:37.473Z,2.70
2018-07-24T15:48:06.974Z,3.20
2018-07-24T15:50:35.666Z,2.73
2018-07-24T15:53:04.170Z,3.27
2018-07-24T15:55:32.700Z,2.80
2018-07-24T15:58:01.660Z,3.17
2018-07-24T16:00:30.326Z,2.60
2018-07-24T16:02:58.823Z,2.23
2018-07-24T16:05:27.356Z,2.50
2018-07-24T16:07:55.879Z,2.67
2018-07-24T16:10:24.411Z,3.17
2018-07-24T16:12:53.543Z,2.75
2018-07-24T16:15:22.111Z,2.70
2018-07-24T16:17:50.842Z,2.80
2018-07-24T16:20:19.439Z,2.52
2018-07-24T16:22:48.001Z,2.00
2018-07-24T16:25:16.559Z,2.77
2018-07-24T16:27:45.353Z,2.50
2018-07-24T16:30:13.934Z,2.67
2018-07-24T16:32:43.538Z,2.70
2018-07-24T16:35:12.239Z,2.50
2018-07-24T16:37:40.798Z,2.87
2018-07-24T16:40:10.207Z,3.40
2018-07-24T16:42:38.758Z,2.30
2018-07-24T16:45:07.361Z,2.90
2018-07-24T16:47:35.859Z,2.80
2018-07-24T16:50:05.568Z,2.10
2018-07-24T16:52:34.197Z,2.83
2018-07-24T16:55:03.610Z,3.23
2018-07-24T16:57:32.577Z,2.80
2018-07-24T17:00:01.218Z,3.03
2018-07-24T17:02:29.757Z,2.90
2018-07-24T17:04:58.586Z,2.77
2018-07-24T17:07:27.185Z,3.07
2018-07-24T17:09:56.394Z,2.63
2018-07-24T17:12:25.104Z,3.63
2018-07-24T17:14:53.997Z,3.50
2018-07-24T17:17:22.768Z,2.80
2018-07-24T17:19:51.308Z,3.53
2018-07-24T17:22:19.938Z,2.90
2018-07-24T17:24:48.408Z,3.10
2018-07-24T17:27:17.002Z,2.70
2018-07-24T17:29:45.481Z,4.30
2018-07-24T17:32:16.470Z,3.57
2018-07-24T17:34:44.687Z,2.90
2018-07-24T17:37:13.351Z,3.20
2018-07-24T17:39:42.735Z,2.80
2018-07-24T17:42:10.952Z,2.90
2018-07-24T17:44:39.442Z,3.30
2018-07-24T17:47:07.988Z,2.97
2018-07-24T17:49:36.488Z,2.90
2018-07-24T17:52:05.170Z,2.97
2018-07-24T17:54:33.666Z,2.83
2018-07-24T17:57:02.522Z,2.80
2018-07-24T17:59:30.998Z,2.70
2018-07-24T18:01:59.724Z,2.80
2018-07-24T18:04:28.234Z,3.30
2018-07-24T18:06:58.187Z,2.50
2018-07-24T18:09:26.659Z,3.23
2018-07-24T18:11:55.379Z,3.43
2018-07-24T18:14:24.901Z,3.20
2018-07-24T18:16:53.926Z,3.07
2018-07-24T18:19:22.433Z,2.90
2018-07-24T18:21:50.977Z,3.23
2018-07-24T18:24:19.441Z,2.93
2018-07-24T18:26:48.435Z,2.93
2018-07-24T18:29:16.951Z,3.53
2018-07-24T18:31:45.527Z,3.10
2018-07-24T18:34:14.077Z,3.70
2018-07-24T18:36:43.073Z,3.50
2018-07-24T18:39:11.678Z,2.80
2018-07-24T18:41:40.274Z,3.40
2018-07-24T18:44:08.836Z,3.00
2018-07-24T18:46:37.328Z,3.50
2018-07-24T18:49:05.889Z,3.40
2018-07-24T18:51:34.851Z,3.07
2018-07-24T18:54:03.505Z,3.03
2018-07-24T18:56:32.048Z,3.13
2018-07-24T18:59:00.643Z,2.43
2018-07-24T19:01:29.143Z,3.50
2018-07-24T19:03:57.673Z,3.27
2018-07-24T19:06:26.453Z,3.30
2018-07-24T19:08:55.080Z,4.00
2018-07-24T19:11:23.587Z,3.27
2018-07-24T19:13:52.410Z,3.20
2018-07-24T19:16:21.270Z,2.87
2018-07-24T19:18:49.985Z,2.87
2018-07-24T19:21:18.536Z,4.20
2018-07-24T19:23:47.085Z,4.70
2018-07-24T19:26:15.595Z,4.40
2018-07-24T19:28:44.442Z,4.62
2018-07-24T19:31:12.996Z,5.67
2018-07-24T19:33:42.015Z,4.93
2018-07-24T19:36:10.558Z,6.87
2018-07-24T19:38:39.097Z,5.97
2018-07-24T19:41:07.681Z,5.13
2018-07-24T19:43:36.402Z,6.30
2018-07-24T19:46:05.222Z,5.60
2018-07-24T19:48:33.783Z,4.80
2018-07-24T19:51:02.715Z,4.63
2018-07-24T19:53:31.324Z,3.70
2018-07-24T19:56:00.873Z,3.97
2018-07-24T19:58:30.162Z,4.47
2018-07-24T20:00:58.855Z,3.90
2018-07-24T20:03:27.620Z,3.90
2018-07-24T20:05:56.103Z,3.60
2018-07-24T20:08:24.622Z,3.80
2018-07-24T20:10:53.111Z,4.00
2018-07-24T20:13:21.813Z,4.00
2018-07-24T20:15:50.317Z,3.57
2018-07-24T20:18:19.511Z,4.03
2018-07-24T20:20:48.710Z,4.67
2018-07-24T20:23:17.659Z,3.97
2018-07-24T20:25:46.317Z,3.70
2018-07-24T20:28:15.964Z,4.00
2018-07-24T20:30:44.479Z,3.97
2018-07-24T20:33:13.563Z,3.80
2018-07-24T20:35:42.683Z,3.53
2018-07-24T20:38:11.356Z,3.50
2018-07-24T20:40:40.079Z,4.73
2018-07-24T20:43:08.908Z,3.70
2018-07-24T20:45:37.402Z,3.73
2018-07-24T20:48:07.198Z,4.67
2018-07-24T20:50:35.796Z,4.43
2018-07-24T20:53:04.317Z,3.80
2018-07-24T20:55:32.839Z,3.90
2018-07-24T20:58:01.383Z,3.60
2018-07-24T21:00:29.950Z,4.03
2018-07-24T21:02:58.420Z,4.27
2018-07-24T21:05:27.048Z,3.87
2018-07-24T21:07:56.101Z,3.97
2018-07-24T21:10:24.666Z,3.80
2018-07-24T21:12:53.231Z,3.90
2018-07-24T21:15:21.733Z,4.60
2018-07-24T21:17:50.256Z,3.70
2018-07-24T21:20:18.973Z,3.90
2018-07-24T21:22:48.253Z,3.93
2018-07-24T21:25:16.938Z,4.33
2018-07-24T21:27:45.514Z,4.40
2018-07-24T21:30:14.259Z,4.20
2018-07-24T21:32:42.763Z,4.23
2018-07-24T21:35:11.482Z,4.60
2018-07-24T21:37:40.923Z,4.47
2018-07-24T21:40:09.525Z,4.20
2018-07-24T21:42:38.860Z,4.93
2018-07-24T21:45:07.345Z,3.90
2018-07-24T21:47:35.948Z,4.20
2018-07-24T21:50:04.616Z,4.60
2018-07-24T21:52:33.163Z,4.10
2018-07-24T21:55:02.942Z,4.53
2018-07-24T21:57:31.593Z,4.58
2018-07-24T22:00:00.818Z,4.60
2018-07-24T22:02:29.395Z,4.80
2018-07-24T22:04:58.630Z,4.53
2018-07-24T22:07:27.178Z,4.40
2018-07-24T22:09:55.677Z,5.00
2018-07-24T22:12:24.744Z,4.50
2018-07-24T22:14:53.278Z,5.37
2018-07-24T22:17:21.815Z,4.90
2018-07-24T22:19:50.356Z,4.90
2018-07-24T22:22:18.882Z,4.40
2018-07-24T22:24:47.026Z,4.77
2018-07-24T22:27:15.758Z,4.23
2018-07-24T22:29:44.290Z,4.03
2018-07-24T22:32:13.881Z,4.80
2018-07-24T22:34:42.834Z,5.20
2018-07-24T22:37:11.345Z,5.10
2018-07-24T22:39:39.792Z,5.20
2018-07-24T22:42:08.773Z,6.33
2018-07-24T22:44:36.941Z,4.93
2018-07-24T22:47:05.796Z,5.43
2018-07-24T22:49:34.193Z,5.57
2018-07-24T22:52:02.584Z,5.00
2018-07-24T22:54:30.942Z,5.23
2018-07-24T22:56:59.698Z,5.77
2018-07-24T22:59:28.334Z,7.40
2018-07-24T23:01:56.817Z,5.80
2018-07-24T23:04:25.446Z,5.90
2018-07-24T23:06:53.850Z,6.47
2018-07-24T23:09:22.328Z,5.30
2018-07-24T23:11:50.728Z,5.27
2018-07-24T23:14:19.189Z,6.17
2018-07-24T23:16:47.771Z,6.53
2018-07-24T23:19:16.350Z,6.73
2018-07-24T23:21:44.941Z,6.30
2018-07-24T23:24:13.457Z,5.77
2018-07-24T23:26:41.585Z,6.43
2018-07-24T23:29:10.032Z,5.67
2018-07-24T23:31:38.477Z,6.10
2018-07-24T23:34:06.920Z,4.93
2018-07-24T23:36:35.300Z,5.57
2018-07-24T23:39:04.453Z,7.13
2018-07-24T23:41:32.930Z,5.17
2018-07-24T23:44:01.327Z,5.60
2018-07-24T23:46:30.387Z,5.50
2018-07-24T23:48:58.824Z,5.33
2018-07-24T23:51:27.226Z,5.27
2018-07-24T23:53:56.181Z,6.13
2018-07-24T23:56:24.781Z,4.87
2018-07-24T23:58:53.494Z,5.20
